LFMLLFTH

Guest
Details From LFML - Marseille Provence
To LFTH - Le Palyvestre Navy
Flight Number -
Tags generated
Created
Modified
Stats Distance 46 nm / 85 km
Max Altitude 3,400 ft / 1,036 m
Waypoints 3
Social Downloads 1
Likes 0
Share VATSIM

Download

Looking for another format? Having issues loading an existing format? Contact us
Advertisement - Login to hide

Notes

Basic altitude profile: - Ascent Rate: 2500ft/min - Ascent Speed: 250kts - Cruise Altitude: 35000ft - Cruise Speed: 420kts - Descent Rate: 1500ft/min - Descent Speed: 250kts Options: - Use NATs: yes - Use PACOTS: yes - Use low airways: yes - Use high airways: yes

Route

LFML ADITA LFTH

ID Type Via Altitude Latitude Longitude Leg Dist Tot Dist Heading (true) Name
O LFML APT - 0 ft / 0 m 43.43589˚ 5.21328˚ - 0 nm - Marseille Provence
ADITA FIX - 3,400 ft / 1,036 m 43.22861˚ 5.82889˚ 29 nm 29 nm 115° / 115° -
O LFTH APT - 0 ft / 0 m 43.09812˚ 6.14976˚ 16 nm 45 nm 119° / 119° Le Palyvestre Navy

Altitude Profile

Advertisement - Login to hide

LFML

Details ICAO LFML (MRS)
Name Marseille Provence
Region France
Timezone Europe/Paris (UTC+2.0)
Stats Elevation 74 ft / 23 m (AMSL)
Location 43.435892° 5.213282°
Runways 2
Magnetic Variation 1.602° E

METAR

LFML 201430Z AUTO 17011KT CAVOK 24/14 Q1013 TEMPO TSRA SCT020 BKN040CB

Decode

TAF

TAF TAF LFML 201400Z 2015/2121 18012KT CAVOK PROB30 TEMPO 2015/2018 5000 TSRA SCT020 BKN040CB BECMG 2018/2020 VRB03KT TEMPO 2108/2119 SHRA SCT040TCU TEMPO 2112/2120 20010KT TX23/2112Z TN13/2103Z

Decode

Departure Runways

ID Width Length Bearing (true) Bearing (mag) Surface Threshold Offset Overrun Length
13L 148 ft / 45 m 11,478 ft / 3,499 m 133.99° 132.39° Asphalt 1,115 ft / 340 m 0 ft / 0 m
13R 148 ft / 45 m 7,981 ft / 2,433 m 134.90° 133.30° Asphalt 0 ft / 0 m 0 ft / 0 m
31L 148 ft / 45 m 7,981 ft / 2,433 m 314.91° 313.31° Asphalt 344 ft / 105 m 0 ft / 0 m
31R 148 ft / 45 m 11,478 ft / 3,499 m 314.01° 312.41° Asphalt 2,165 ft / 660 m 0 ft / 0 m

LFTH

Details ICAO LFTH (TLN)
Name Le Palyvestre Navy
Region France
Timezone Europe/Paris (UTC+2.0)
Stats Elevation 6 ft / 2 m (AMSL)
Location 43.098120° 6.149761°
Runways 2
Magnetic Variation 1.820° E

METAR

LFTH 201430Z AUTO 15006KT 100V190 CAVOK 23/13 Q1013 NOSIG

Decode

TAF

TAF LFTH 201400Z 2015/2115 16008KT CAVOK BECMG 2020/2022 VRB04KT TEMPO 2107/2115 4000 SHRA BKN040TCU BECMG 2108/2110 10012KT

Decode

Destination Runways

ID Width Length Bearing (true) Bearing (mag) Surface Threshold Offset Overrun Length
05 148 ft / 45 m 6,956 ft / 2,120 m 51.12° 49.30° Concrete 722 ft / 220 m 361 ft / 110 m
14 164 ft / 50 m 6,302 ft / 1,921 m 135.18° 133.36° Concrete 951 ft / 290 m 0 ft / 0 m
23 148 ft / 45 m 6,956 ft / 2,120 m 231.13° 229.31° Concrete 0 ft / 0 m 141 ft / 43 m
32 164 ft / 50 m 6,302 ft / 1,921 m 315.20° 313.38° Concrete 295 ft / 90 m 443 ft / 135 m

Popular Alternatives